sensor_id;sensor_type;location;lat;lon;timestamp;pressure;altitude;pressure_sealevel;temperature;humidity
40372;BME280;28564;53.346;-6.554;2023-03-26T00:01:26;99258.30;;;9.60;51.05
40372;BME280;28564;53.346;-6.554;2023-03-26T00:03:54;99256.45;;;9.58;49.92
40372;BME280;28564;53.346;-6.554;2023-03-26T00:06:24;99258.54;;;10.00;48.72
40372;BME280;28564;53.346;-6.554;2023-03-26T00:08:53;99250.96;;;10.48;47.95
40372;BME280;28564;53.346;-6.554;2023-03-26T00:11:23;99250.14;;;10.58;47.32
40372;BME280;28564;53.346;-6.554;2023-03-26T00:13:51;99246.71;;;10.57;46.94
40372;BME280;28564;53.346;-6.554;2023-03-26T00:16:20;99243.09;;;10.94;46.60
40372;BME280;28564;53.346;-6.554;2023-03-26T00:18:48;99243.65;;;10.82;46.39
40372;BME280;28564;53.346;-6.554;2023-03-26T00:21:17;99244.07;;;10.91;46.26
40372;BME280;28564;53.346;-6.554;2023-03-26T00:23:45;99246.42;;;10.72;46.09
40372;BME280;28564;53.346;-6.554;2023-03-26T00:26:13;99248.35;;;11.07;45.94
40372;BME280;28564;53.346;-6.554;2023-03-26T00:28:41;99250.61;;;10.82;45.78
40372;BME280;28564;53.346;-6.554;2023-03-26T00:31:11;99254.13;;;11.31;45.71
40372;BME280;28564;53.346;-6.554;2023-03-26T00:33:40;99257.72;;;10.82;45.70
40372;BME280;28564;53.346;-6.554;2023-03-26T00:36:10;99263.33;;;10.82;45.61
40372;BME280;28564;53.346;-6.554;2023-03-26T00:38:39;99264.46;;;10.81;45.61
40372;BME280;28564;53.346;-6.554;2023-03-26T00:41:08;99269.16;;;10.80;45.62
40372;BME280;28564;53.346;-6.554;2023-03-26T00:43:36;99266.20;;;10.77;45.63
40372;BME280;28564;53.346;-6.554;2023-03-26T00:46:04;99264.23;;;10.76;45.67
40372;BME280;28564;53.346;-6.554;2023-03-26T00:48:32;99265.41;;;10.80;45.71
40372;BME280;28564;53.346;-6.554;2023-03-26T00:50:59;99266.22;;;10.82;45.60
40372;BME280;28564;53.346;-6.554;2023-03-26T00:53:28;99265.48;;;10.84;45.59
40372;BME280;28564;53.346;-6.554;2023-03-26T00:55:55;99267.29;;;10.85;45.55
40372;BME280;28564;53.346;-6.554;2023-03-26T00:58:23;99268.73;;;10.82;45.48
40372;BME280;28564;53.346;-6.554;2023-03-26T01:00:52;99266.80;;;11.93;45.54
40372;BME280;28564;53.346;-6.554;2023-03-26T01:03:20;99265.35;;;12.18;46.64
40372;BME280;28564;53.346;-6.554;2023-03-26T01:05:49;99273.75;;;11.20;47.87
40372;BME280;28564;53.346;-6.554;2023-03-26T01:08:29;99273.00;;;11.16;48.83
40372;BME280;28564;53.346;-6.554;2023-03-26T01:11:00;99266.94;;;10.77;49.74
40372;BME280;28564;53.346;-6.554;2023-03-26T01:13:30;99268.20;;;10.73;50.48
40372;BME280;28564;53.346;-6.554;2023-03-26T01:15:59;99268.09;;;10.52;51.09
40372;BME280;28564;53.346;-6.554;2023-03-26T01:18:31;99268.59;;;10.68;51.55
40372;BME280;28564;53.346;-6.554;2023-03-26T01:21:01;99272.41;;;10.57;52.14
40372;BME280;28564;53.346;-6.554;2023-03-26T01:23:36;99278.35;;;10.29;52.95
40372;BME280;28564;53.346;-6.554;2023-03-26T01:26:09;99280.56;;;10.64;53.65
40372;BME280;28564;53.346;-6.554;2023-03-26T01:28:39;99278.55;;;10.47;54.06
40372;BME280;28564;53.346;-6.554;2023-03-26T01:31:13;99284.21;;;10.58;54.23
40372;BME280;28564;53.346;-6.554;2023-03-26T01:33:47;99289.76;;;10.97;54.52
40372;BME280;28564;53.346;-6.554;2023-03-26T01:36:23;99293.12;;;10.84;54.72
40372;BME280;28564;53.346;-6.554;2023-03-26T01:38:58;99296.90;;;10.72;54.72
40372;BME280;28564;53.346;-6.554;2023-03-26T01:41:32;99297.36;;;11.04;54.70
40372;BME280;28564;53.346;-6.554;2023-03-26T01:44:07;99294.28;;;11.12;54.65
40372;BME280;28564;53.346;-6.554;2023-03-26T01:46:38;99293.98;;;11.21;54.70
40372;BME280;28564;53.346;-6.554;2023-03-26T01:49:07;99298.61;;;11.31;54.76
40372;BME280;28564;53.346;-6.554;2023-03-26T01:51:34;99297.23;;;11.16;54.58
40372;BME280;28564;53.346;-6.554;2023-03-26T01:54:04;99297.59;;;11.21;54.46
40372;BME280;28564;53.346;-6.554;2023-03-26T01:56:36;99292.52;;;11.24;54.20
40372;BME280;28564;53.346;-6.554;2023-03-26T01:59:16;99293.33;;;11.25;53.95
40372;BME280;28564;53.346;-6.554;2023-03-26T02:01:52;99295.84;;;11.26;53.88
40372;BME280;28564;53.346;-6.554;2023-03-26T02:04:25;99296.29;;;11.25;53.84
40372;BME280;28564;53.346;-6.554;2023-03-26T02:06:58;99296.23;;;11.00;54.02
40372;BME280;28564;53.346;-6.554;2023-03-26T02:09:31;99296.81;;;11.23;54.17
40372;BME280;28564;53.346;-6.554;2023-03-26T02:12:01;99296.38;;;11.24;54.21
40372;BME280;28564;53.346;-6.554;2023-03-26T02:14:30;99302.82;;;11.21;54.18
40372;BME280;28564;53.346;-6.554;2023-03-26T02:16:58;99308.75;;;11.20;54.64
40372;BME280;28564;53.346;-6.554;2023-03-26T02:19:25;99314.20;;;11.20;55.22
40372;BME280;28564;53.346;-6.554;2023-03-26T02:21:52;99312.44;;;11.25;55.32
40372;BME280;28564;53.346;-6.554;2023-03-26T02:24:19;99315.02;;;11.26;55.13
40372;BME280;28564;53.346;-6.554;2023-03-26T02:26:47;99317.71;;;11.48;55.53
40372;BME280;28564;53.346;-6.554;2023-03-26T02:29:16;99315.06;;;11.54;55.71
40372;BME280;28564;53.346;-6.554;2023-03-26T02:31:43;99314.22;;;11.38;55.69
40372;BME280;28564;53.346;-6.554;2023-03-26T02:34:10;99317.87;;;11.47;55.69
40372;BME280;28564;53.346;-6.554;2023-03-26T02:36:37;99317.66;;;11.52;55.63
40372;BME280;28564;53.346;-6.554;2023-03-26T02:39:05;99319.54;;;11.59;55.58
40372;BME280;28564;53.346;-6.554;2023-03-26T02:41:32;99325.35;;;11.88;55.34
40372;BME280;28564;53.346;-6.554;2023-03-26T02:43:59;99325.97;;;11.46;55.31
40372;BME280;28564;53.346;-6.554;2023-03-26T02:46:26;99329.67;;;11.25;55.32
40372;BME280;28564;53.346;-6.554;2023-03-26T02:48:54;99337.86;;;11.80;55.27
40372;BME280;28564;53.346;-6.554;2023-03-26T02:51:21;99339.07;;;11.62;54.98
40372;BME280;28564;53.346;-6.554;2023-03-26T02:53:48;99345.97;;;11.85;54.83
40372;BME280;28564;53.346;-6.554;2023-03-26T02:56:15;99348.22;;;11.86;54.62
40372;BME280;28564;53.346;-6.554;2023-03-26T02:58:42;99352.34;;;11.84;54.48
40372;BME280;28564;53.346;-6.554;2023-03-26T03:01:09;99357.90;;;11.79;54.46
40372;BME280;28564;53.346;-6.554;2023-03-26T03:03:37;99363.84;;;11.77;54.47
40372;BME280;28564;53.346;-6.554;2023-03-26T03:06:04;99366.46;;;11.72;54.63
40372;BME280;28564;53.346;-6.554;2023-03-26T03:08:32;99369.39;;;11.49;54.56
40372;BME280;28564;53.346;-6.554;2023-03-26T03:11:00;99368.45;;;11.69;54.68
40372;BME280;28564;53.346;-6.554;2023-03-26T03:13:28;99373.06;;;11.67;54.72
40372;BME280;28564;53.346;-6.554;2023-03-26T03:15:56;99373.96;;;11.62;54.78
40372;BME280;28564;53.346;-6.554;2023-03-26T03:18:23;99375.92;;;11.38;55.05
40372;BME280;28564;53.346;-6.554;2023-03-26T03:20:50;99377.78;;;11.61;55.24
40372;BME280;28564;53.346;-6.554;2023-03-26T03:23:17;99383.48;;;11.63;55.20
40372;BME280;28564;53.346;-6.554;2023-03-26T03:25:44;99383.54;;;11.65;55.17
40372;BME280;28564;53.346;-6.554;2023-03-26T03:28:12;99387.20;;;11.68;55.19
40372;BME280;28564;53.346;-6.554;2023-03-26T03:30:39;99390.59;;;11.70;55.26
40372;BME280;28564;53.346;-6.554;2023-03-26T03:33:06;99391.88;;;11.70;55.09
40372;BME280;28564;53.346;-6.554;2023-03-26T03:35:33;99393.13;;;11.69;55.08
40372;BME280;28564;53.346;-6.554;2023-03-26T03:38:00;99395.81;;;11.42;55.18
40372;BME280;28564;53.346;-6.554;2023-03-26T03:40:27;99394.91;;;11.65;55.37
40372;BME280;28564;53.346;-6.554;2023-03-26T03:42:55;99397.44;;;11.65;55.20
40372;BME280;28564;53.346;-6.554;2023-03-26T03:45:22;99401.46;;;11.63;55.25
40372;BME280;28564;53.346;-6.554;2023-03-26T03:47:50;99405.78;;;11.65;55.36
40372;BME280;28564;53.346;-6.554;2023-03-26T03:50:17;99406.14;;;11.90;55.22
40372;BME280;28564;53.346;-6.554;2023-03-26T03:52:45;99410.75;;;11.67;55.01
40372;BME280;28564;53.346;-6.554;2023-03-26T03:55:12;99411.59;;;11.67;55.12
40372;BME280;28564;53.346;-6.554;2023-03-26T03:57:40;99412.48;;;11.71;55.13
40372;BME280;28564;53.346;-6.554;2023-03-26T04:00:08;99409.39;;;11.71;54.64
40372;BME280;28564;53.346;-6.554;2023-03-26T04:02:36;99414.91;;;11.43;54.64
40372;BME280;28564;53.346;-6.554;2023-03-26T04:05:04;99417.93;;;11.61;54.87
40372;BME280;28564;53.346;-6.554;2023-03-26T04:07:31;99424.76;;;11.39;54.81
40372;BME280;28564;53.346;-6.554;2023-03-26T04:09:59;99427.90;;;11.62;54.97
40372;BME280;28564;53.346;-6.554;2023-03-26T04:12:27;99430.87;;;11.42;54.82
40372;BME280;28564;53.346;-6.554;2023-03-26T04:14:55;99433.14;;;11.64;54.76
40372;BME280;28564;53.346;-6.554;2023-03-26T04:17:23;99431.87;;;11.39;54.59
40372;BME280;28564;53.346;-6.554;2023-03-26T04:19:51;99438.47;;;11.60;54.59
40372;BME280;28564;53.346;-6.554;2023-03-26T04:22:18;99442.61;;;11.37;54.63
40372;BME280;28564;53.346;-6.554;2023-03-26T04:24:45;99443.62;;;11.56;54.43
40372;BME280;28564;53.346;-6.554;2023-03-26T04:27:15;99450.46;;;11.52;54.56
40372;BME280;28564;53.346;-6.554;2023-03-26T04:29:46;99451.77;;;11.48;54.42
40372;BME280;28564;53.346;-6.554;2023-03-26T04:32:21;99457.15;;;11.43;54.44
40372;BME280;28564;53.346;-6.554;2023-03-26T04:34:49;99463.51;;;11.40;54.63
40372;BME280;28564;53.346;-6.554;2023-03-26T04:37:23;99469.45;;;11.42;54.70
40372;BME280;28564;53.346;-6.554;2023-03-26T04:39:51;99473.16;;;11.21;54.55
40372;BME280;28564;53.346;-6.554;2023-03-26T04:42:18;99470.41;;;11.15;54.48
40372;BME280;28564;53.346;-6.554;2023-03-26T04:44:46;99476.53;;;11.34;54.53
40372;BME280;28564;53.346;-6.554;2023-03-26T04:47:13;99482.67;;;11.31;54.47
40372;BME280;28564;53.346;-6.554;2023-03-26T04:49:40;99490.76;;;11.27;54.49
40372;BME280;28564;53.346;-6.554;2023-03-26T04:52:09;99499.97;;;11.29;54.84
40372;BME280;28564;53.346;-6.554;2023-03-26T04:54:37;99505.78;;;11.57;55.05
40372;BME280;28564;53.346;-6.554;2023-03-26T04:57:06;99505.19;;;11.41;54.73
40372;BME280;28564;53.346;-6.554;2023-03-26T04:59:34;99506.02;;;11.44;54.51
40372;BME280;28564;53.346;-6.554;2023-03-26T05:02:03;99514.80;;;11.43;54.49
40372;BME280;28564;53.346;-6.554;2023-03-26T05:04:31;99519.66;;;11.23;54.60
40372;BME280;28564;53.346;-6.554;2023-03-26T05:06:58;99527.17;;;11.49;54.59
40372;BME280;28564;53.346;-6.554;2023-03-26T05:09:26;99526.61;;;11.54;54.32
40372;BME280;28564;53.346;-6.554;2023-03-26T05:11:53;99534.84;;;11.53;54.26
40372;BME280;28564;53.346;-6.554;2023-03-26T05:14:20;99541.55;;;11.53;54.34
40372;BME280;28564;53.346;-6.554;2023-03-26T05:16:48;99547.92;;;11.77;54.38
40372;BME280;28564;53.346;-6.554;2023-03-26T05:19:15;99554.83;;;11.57;54.28
40372;BME280;28564;53.346;-6.554;2023-03-26T05:21:43;99560.09;;;11.60;54.37
40372;BME280;28564;53.346;-6.554;2023-03-26T05:24:10;99565.96;;;11.42;54.34
40372;BME280;28564;53.346;-6.554;2023-03-26T05:26:37;99570.47;;;11.24;54.24
40372;BME280;28564;53.346;-6.554;2023-03-26T05:29:04;99572.68;;;11.77;53.88
40372;BME280;28564;53.346;-6.554;2023-03-26T05:31:31;99578.97;;;11.73;53.88
40372;BME280;28564;53.346;-6.554;2023-03-26T05:33:59;99587.87;;;11.72;53.97
40372;BME280;28564;53.346;-6.554;2023-03-26T05:36:26;99592.03;;;11.70;53.90
40372;BME280;28564;53.346;-6.554;2023-03-26T05:38:53;99599.49;;;11.41;53.79
40372;BME280;28564;53.346;-6.554;2023-03-26T05:41:20;99605.89;;;11.57;53.91
40372;BME280;28564;53.346;-6.554;2023-03-26T05:43:47;99610.79;;;11.74;53.86
40372;BME280;28564;53.346;-6.554;2023-03-26T05:46:15;99616.62;;;11.25;54.10
40372;BME280;28564;53.346;-6.554;2023-03-26T05:48:43;99625.89;;;11.25;54.08
40372;BME280;28564;53.346;-6.554;2023-03-26T05:51:10;99631.30;;;11.46;53.92
40372;BME280;28564;53.346;-6.554;2023-03-26T05:53:37;99640.14;;;11.43;53.92
40372;BME280;28564;53.346;-6.554;2023-03-26T05:56:05;99648.37;;;11.43;53.80
40372;BME280;28564;53.346;-6.554;2023-03-26T05:58:33;99654.21;;;11.41;53.78
40372;BME280;28564;53.346;-6.554;2023-03-26T06:01:03;99661.59;;;11.42;53.71
40372;BME280;28564;53.346;-6.554;2023-03-26T06:03:31;99669.77;;;11.45;53.70
40372;BME280;28564;53.346;-6.554;2023-03-26T06:05:58;99679.65;;;11.45;53.63
40372;BME280;28564;53.346;-6.554;2023-03-26T06:08:26;99685.52;;;11.47;53.59
40372;BME280;28564;53.346;-6.554;2023-03-26T06:10:58;99688.66;;;11.47;53.53
40372;BME280;28564;53.346;-6.554;2023-03-26T06:13:26;99697.64;;;11.48;53.52
40372;BME280;28564;53.346;-6.554;2023-03-26T06:15:53;99701.24;;;11.50;53.40
40372;BME280;28564;53.346;-6.554;2023-03-26T06:18:20;99708.94;;;11.51;53.18
40372;BME280;28564;53.346;-6.554;2023-03-26T06:20:47;99715.57;;;11.45;53.31
40372;BME280;28564;53.346;-6.554;2023-03-26T06:23:15;99718.42;;;11.45;53.45
40372;BME280;28564;53.346;-6.554;2023-03-26T06:25:42;99724.53;;;11.44;53.39
40372;BME280;28564;53.346;-6.554;2023-03-26T06:28:10;99730.67;;;11.48;53.63
40372;BME280;28564;53.346;-6.554;2023-03-26T06:30:38;99736.03;;;11.52;53.45
40372;BME280;28564;53.346;-6.554;2023-03-26T06:33:05;99732.70;;;11.52;53.13
40372;BME280;28564;53.346;-6.554;2023-03-26T06:35:32;99744.09;;;11.45;53.16
40372;BME280;28564;53.346;-6.554;2023-03-26T06:38:00;99749.93;;;11.42;53.44
40372;BME280;28564;53.346;-6.554;2023-03-26T06:40:27;99757.81;;;11.41;53.43
40372;BME280;28564;53.346;-6.554;2023-03-26T06:42:55;99759.19;;;11.37;53.54
40372;BME280;28564;53.346;-6.554;2023-03-26T06:45:22;99768.00;;;11.37;53.58
40372;BME280;28564;53.346;-6.554;2023-03-26T06:47:49;99772.45;;;11.38;53.69
40372;BME280;28564;53.346;-6.554;2023-03-26T06:50:17;99775.88;;;11.42;53.57
40372;BME280;28564;53.346;-6.554;2023-03-26T06:52:44;99783.79;;;11.43;53.53
40372;BME280;28564;53.346;-6.554;2023-03-26T06:55:11;99789.48;;;11.45;53.45
40372;BME280;28564;53.346;-6.554;2023-03-26T06:57:38;99790.97;;;11.46;53.34
40372;BME280;28564;53.346;-6.554;2023-03-26T07:00:06;99798.79;;;11.46;53.30
40372;BME280;28564;53.346;-6.554;2023-03-26T07:02:38;99806.39;;;11.47;53.36
40372;BME280;28564;53.346;-6.554;2023-03-26T07:05:06;99814.81;;;11.50;53.23
40372;BME280;28564;53.346;-6.554;2023-03-26T07:07:34;99818.67;;;11.25;53.17
40372;BME280;28564;53.346;-6.554;2023-03-26T07:10:02;99823.42;;;11.48;53.31
40372;BME280;28564;53.346;-6.554;2023-03-26T07:12:29;99826.51;;;11.72;53.21
40372;BME280;28564;53.346;-6.554;2023-03-26T07:14:56;99833.69;;;11.29;53.22
40372;BME280;28564;53.346;-6.554;2023-03-26T07:17:23;99844.77;;;11.53;53.18
40372;BME280;28564;53.346;-6.554;2023-03-26T07:19:50;99850.64;;;11.56;53.17
40372;BME280;28564;53.346;-6.554;2023-03-26T07:22:20;99862.20;;;11.58;52.95
40372;BME280;28564;53.346;-6.554;2023-03-26T07:24:48;99866.85;;;11.60;52.85
40372;BME280;28564;53.346;-6.554;2023-03-26T07:27:30;99873.54;;;11.36;52.58
40372;BME280;28564;53.346;-6.554;2023-03-26T07:30:07;99883.29;;;11.32;52.54
40372;BME280;28564;53.346;-6.554;2023-03-26T07:32:40;99893.11;;;11.55;52.45
40372;BME280;28564;53.346;-6.554;2023-03-26T07:35:17;99902.20;;;11.77;52.28
40372;BME280;28564;53.346;-6.554;2023-03-26T07:37:53;99908.55;;;11.54;52.50
40372;BME280;28564;53.346;-6.554;2023-03-26T07:40:38;99920.13;;;11.59;52.48
40372;BME280;28564;53.346;-6.554;2023-03-26T07:43:14;99926.90;;;11.40;52.48
40372;BME280;28564;53.346;-6.554;2023-03-26T07:45:44;99932.01;;;11.67;52.35
40372;BME280;28564;53.346;-6.554;2023-03-26T07:48:15;99938.73;;;11.72;52.44
40372;BME280;28564;53.346;-6.554;2023-03-26T07:50:43;99943.65;;;11.75;52.28
40372;BME280;28564;53.346;-6.554;2023-03-26T07:53:11;99949.89;;;11.75;52.16
40372;BME280;28564;53.346;-6.554;2023-03-26T07:55:45;99955.02;;;11.75;52.21
40372;BME280;28564;53.346;-6.554;2023-03-26T07:58:31;99959.86;;;11.78;52.24
40372;BME280;28564;53.346;-6.554;2023-03-26T08:01:07;99966.13;;;11.79;52.04
40372;BME280;28564;53.346;-6.554;2023-03-26T08:03:50;99976.47;;;11.25;52.05
40372;BME280;28564;53.346;-6.554;2023-03-26T08:06:29;99984.61;;;11.22;51.99
40372;BME280;28564;53.346;-6.554;2023-03-26T08:09:07;99993.02;;;11.44;52.03
40372;BME280;28564;53.346;-6.554;2023-03-26T08:11:45;99993.72;;;11.46;52.13
40372;BME280;28564;53.346;-6.554;2023-03-26T08:14:28;100002.33;;;11.59;52.24
40372;BME280;28564;53.346;-6.554;2023-03-26T08:17:03;100008.17;;;11.90;52.07
40372;BME280;28564;53.346;-6.554;2023-03-26T08:19:40;100009.29;;;11.68;51.84
40372;BME280;28564;53.346;-6.554;2023-03-26T08:22:17;100015.59;;;11.84;51.98
40372;BME280;28564;53.346;-6.554;2023-03-26T08:24:59;100018.89;;;11.33;52.10
40372;BME280;28564;53.346;-6.554;2023-03-26T08:27:36;100027.86;;;11.52;51.87
40372;BME280;28564;53.346;-6.554;2023-03-26T08:30:10;100034.65;;;11.63;51.83
40372;BME280;28564;53.346;-6.554;2023-03-26T08:32:41;100043.43;;;11.55;52.35
40372;BME280;28564;53.346;-6.554;2023-03-26T08:35:10;100051.22;;;11.36;52.67
40372;BME280;28564;53.346;-6.554;2023-03-26T08:37:38;100059.41;;;11.61;52.63
40372;BME280;28564;53.346;-6.554;2023-03-26T08:40:06;100064.73;;;11.61;52.66
40372;BME280;28564;53.346;-6.554;2023-03-26T08:42:52;100076.68;;;11.59;52.19
40372;BME280;28564;53.346;-6.554;2023-03-26T08:45:41;100084.95;;;11.53;52.28
40372;BME280;28564;53.346;-6.554;2023-03-26T08:48:33;100093.97;;;11.45;52.33
40372;BME280;28564;53.346;-6.554;2023-03-26T08:52:14;100099.86;;;11.28;52.52
40372;BME280;28564;53.346;-6.554;2023-03-26T08:54:57;100108.46;;;11.56;52.03
40372;BME280;28564;53.346;-6.554;2023-03-26T08:57:57;100112.63;;;11.06;52.09
40372;BME280;28564;53.346;-6.554;2023-03-26T09:00:41;100117.78;;;11.60;52.49
40372;BME280;28564;53.346;-6.554;2023-03-26T09:04:34;100122.86;;;11.30;52.20
40372;BME280;28564;53.346;-6.554;2023-03-26T09:07:42;100132.49;;;11.61;51.90
40372;BME280;28564;53.346;-6.554;2023-03-26T09:10:52;100137.63;;;12.35;51.12
40372;BME280;28564;53.346;-6.554;2023-03-26T09:14:23;100150.44;;;12.06;50.83
40372;BME280;28564;53.346;-6.554;2023-03-26T09:17:13;100165.39;;;12.07;50.41
40372;BME280;28564;53.346;-6.554;2023-03-26T09:22:33;100184.82;;;12.55;50.56
40372;BME280;28564;53.346;-6.554;2023-03-26T09:25:21;100196.61;;;12.31;50.11
40372;BME280;28564;53.346;-6.554;2023-03-26T09:35:09;100223.68;;;12.82;50.46
40372;BME280;28564;53.346;-6.554;2023-03-26T09:37:50;100232.95;;;11.97;49.40
40372;BME280;28564;53.346;-6.554;2023-03-26T09:40:26;100238.74;;;12.78;48.61
40372;BME280;28564;53.346;-6.554;2023-03-26T09:43:15;100250.12;;;13.04;48.57
40372;BME280;28564;53.346;-6.554;2023-03-26T09:46:00;100259.62;;;13.15;48.52
40372;BME280;28564;53.346;-6.554;2023-03-26T09:48:51;100261.09;;;13.24;48.14
40372;BME280;28564;53.346;-6.554;2023-03-26T09:51:35;100269.53;;;13.06;47.76
40372;BME280;28564;53.346;-6.554;2023-03-26T09:54:33;100276.30;;;13.37;47.83
40372;BME280;28564;53.346;-6.554;2023-03-26T09:57:12;100286.43;;;13.25;47.10
40372;BME280;28564;53.346;-6.554;2023-03-26T09:59:57;100288.34;;;13.16;46.64
40372;BME280;28564;53.346;-6.554;2023-03-26T10:02:42;100298.65;;;13.27;46.73
40372;BME280;28564;53.346;-6.554;2023-03-26T10:05:39;100310.25;;;13.06;46.64
40372;BME280;28564;53.346;-6.554;2023-03-26T10:08:26;100316.59;;;13.20;46.45
40372;BME280;28564;53.346;-6.554;2023-03-26T10:11:02;100317.55;;;13.45;46.17
40372;BME280;28564;53.346;-6.554;2023-03-26T10:13:39;100325.51;;;13.65;45.60
40372;BME280;28564;53.346;-6.554;2023-03-26T10:16:19;100335.31;;;13.86;45.56
40372;BME280;28564;53.346;-6.554;2023-03-26T10:19:01;100336.34;;;13.70;44.85
40372;BME280;28564;53.346;-6.554;2023-03-26T10:21:39;100339.91;;;13.44;44.44
40372;BME280;28564;53.346;-6.554;2023-03-26T10:24:20;100346.32;;;13.90;44.48
40372;BME280;28564;53.346;-6.554;2023-03-26T10:27:01;100350.46;;;13.97;44.67
40372;BME280;28564;53.346;-6.554;2023-03-26T10:29:51;100359.35;;;13.64;44.53
40372;BME280;28564;53.346;-6.554;2023-03-26T10:32:29;100366.92;;;13.98;43.95
40372;BME280;28564;53.346;-6.554;2023-03-26T10:35:08;100376.57;;;13.94;43.87
40372;BME280;28564;53.346;-6.554;2023-03-26T10:37:48;100382.47;;;13.88;43.89
40372;BME280;28564;53.346;-6.554;2023-03-26T10:40:22;100391.07;;;13.85;43.82
40372;BME280;28564;53.346;-6.554;2023-03-26T10:44:12;100393.26;;;13.51;43.90
40372;BME280;28564;53.346;-6.554;2023-03-26T10:46:54;100402.00;;;13.39;44.19
40372;BME280;28564;53.346;-6.554;2023-03-26T10:49:45;100409.33;;;13.99;43.95
40372;BME280;28564;53.346;-6.554;2023-03-26T10:52:22;100419.05;;;13.80;43.81
40372;BME280;28564;53.346;-6.554;2023-03-26T10:55:13;100424.87;;;13.32;44.15
40372;BME280;28564;53.346;-6.554;2023-03-26T10:57:46;100429.43;;;13.40;44.42
40372;BME280;28564;53.346;-6.554;2023-03-26T11:00:19;100439.48;;;13.29;44.63
40372;BME280;28564;53.346;-6.554;2023-03-26T11:03:34;100446.98;;;13.30;44.50
40372;BME280;28564;53.346;-6.554;2023-03-26T11:06:15;100459.78;;;13.28;44.50
40372;BME280;28564;53.346;-6.554;2023-03-26T11:08:49;100464.63;;;13.25;44.62
40372;BME280;28564;53.346;-6.554;2023-03-26T11:11:23;100471.45;;;13.24;44.55
40372;BME280;28564;53.346;-6.554;2023-03-26T11:13:59;100472.85;;;13.31;44.56
40372;BME280;28564;53.346;-6.554;2023-03-26T11:16:37;100473.55;;;13.44;44.58
40372;BME280;28564;53.346;-6.554;2023-03-26T11:19:16;100477.52;;;13.68;44.66
40372;BME280;28564;53.346;-6.554;2023-03-26T11:21:53;100481.76;;;13.44;44.42
40372;BME280;28564;53.346;-6.554;2023-03-26T11:24:37;100482.22;;;13.60;44.45
40372;BME280;28564;53.346;-6.554;2023-03-26T11:27:14;100484.58;;;13.48;43.70
40372;BME280;28564;53.346;-6.554;2023-03-26T11:29:51;100490.37;;;14.03;43.34
40372;BME280;28564;53.346;-6.554;2023-03-26T11:32:23;100494.86;;;14.18;42.81
40372;BME280;28564;53.346;-6.554;2023-03-26T11:34:58;100500.67;;;14.02;42.41
40372;BME280;28564;53.346;-6.554;2023-03-26T11:37:32;100505.13;;;14.11;42.04
40372;BME280;28564;53.346;-6.554;2023-03-26T11:40:08;100512.30;;;14.22;41.50
40372;BME280;28564;53.346;-6.554;2023-03-26T11:42:38;100521.81;;;14.29;41.27
40372;BME280;28564;53.346;-6.554;2023-03-26T11:45:13;100527.91;;;14.39;41.05
40372;BME280;28564;53.346;-6.554;2023-03-26T11:47:46;100534.52;;;14.38;40.99
40372;BME280;28564;53.346;-6.554;2023-03-26T11:50:19;100546.18;;;14.25;41.16
40372;BME280;28564;53.346;-6.554;2023-03-26T11:52:48;100553.88;;;14.16;41.39
40372;BME280;28564;53.346;-6.554;2023-03-26T11:55:15;100561.60;;;14.07;41.51
40372;BME280;28564;53.346;-6.554;2023-03-26T11:57:48;100564.32;;;14.10;41.69
40372;BME280;28564;53.346;-6.554;2023-03-26T12:00:19;100577.84;;;14.54;41.64
40372;BME280;28564;53.346;-6.554;2023-03-26T12:02:48;100585.73;;;14.57;41.21
40372;BME280;28564;53.346;-6.554;2023-03-26T12:05:17;100589.57;;;14.75;41.03
40372;BME280;28564;53.346;-6.554;2023-03-26T12:08:02;100596.79;;;14.87;40.51
40372;BME280;28564;53.346;-6.554;2023-03-26T12:10:44;100604.80;;;14.66;40.12
40372;BME280;28564;53.346;-6.554;2023-03-26T12:13:28;100612.41;;;14.98;40.24
40372;BME280;28564;53.346;-6.554;2023-03-26T12:15:57;100617.94;;;14.62;39.81
40372;BME280;28564;53.346;-6.554;2023-03-26T12:18:27;100622.14;;;14.93;39.88
40372;BME280;28564;53.346;-6.554;2023-03-26T12:21:03;100626.06;;;15.06;39.92
40372;BME280;28564;53.346;-6.554;2023-03-26T12:23:40;100629.44;;;15.16;39.83
40372;BME280;28564;53.346;-6.554;2023-03-26T12:26:14;100629.95;;;15.13;39.53
40372;BME280;28564;53.346;-6.554;2023-03-26T12:28:47;100634.06;;;14.86;39.43
40372;BME280;28564;53.346;-6.554;2023-03-26T12:31:15;100639.61;;;14.92;39.65
40372;BME280;28564;53.346;-6.554;2023-03-26T12:33:44;100640.63;;;15.22;39.97
40372;BME280;28564;53.346;-6.554;2023-03-26T12:36:19;100642.03;;;15.66;40.08
40372;BME280;28564;53.346;-6.554;2023-03-26T12:38:47;100640.15;;;16.31;38.83
40372;BME280;28564;53.346;-6.554;2023-03-26T12:41:29;100646.86;;;16.39;38.10
40372;BME280;28564;53.346;-6.554;2023-03-26T12:44:20;100656.51;;;17.00;37.11
40372;BME280;28564;53.346;-6.554;2023-03-26T12:46:47;100663.46;;;17.76;36.06
40372;BME280;28564;53.346;-6.554;2023-03-26T12:49:16;100670.29;;;17.73;35.24
40372;BME280;28564;53.346;-6.554;2023-03-26T12:51:47;100682.76;;;17.18;35.38
40372;BME280;28564;53.346;-6.554;2023-03-26T12:54:24;100688.89;;;17.13;35.64
40372;BME280;28564;53.346;-6.554;2023-03-26T12:57:03;100695.13;;;16.34;36.00
40372;BME280;28564;53.346;-6.554;2023-03-26T12:59:44;100697.31;;;16.42;36.32
40372;BME280;28564;53.346;-6.554;2023-03-26T13:02:44;100712.07;;;15.90;36.67
40372;BME280;28564;53.346;-6.554;2023-03-26T13:05:26;100710.86;;;16.15;36.83
40372;BME280;28564;53.346;-6.554;2023-03-26T13:08:13;100714.75;;;15.66;36.81
40372;BME280;28564;53.346;-6.554;2023-03-26T13:10:49;100719.22;;;15.57;36.76
40372;BME280;28564;53.346;-6.554;2023-03-26T13:13:34;100726.33;;;15.45;37.12
40372;BME280;28564;53.346;-6.554;2023-03-26T13:16:11;100731.11;;;15.44;37.00
40372;BME280;28564;53.346;-6.554;2023-03-26T13:18:46;100732.32;;;16.05;37.20
40372;BME280;28564;53.346;-6.554;2023-03-26T13:21:25;100731.81;;;16.20;36.33
40372;BME280;28564;53.346;-6.554;2023-03-26T13:24:00;100729.00;;;17.44;35.51
40372;BME280;28564;53.346;-6.554;2023-03-26T13:26:40;100731.18;;;18.61;33.68
40372;BME280;28564;53.346;-6.554;2023-03-26T13:29:15;100736.87;;;20.40;31.70